createdAt,value
2023-03-10T00:00:40.411Z,161.07
2023-03-10T00:03:07.882Z,157.83
2023-03-10T00:05:35.151Z,163.07
2023-03-10T00:08:02.039Z,161.40
2023-03-10T00:10:29.182Z,161.53
2023-03-10T00:12:56.369Z,162.67
2023-03-10T00:15:23.876Z,158.57
2023-03-10T00:17:52.154Z,168.57
2023-03-10T00:20:19.134Z,160.87
2023-03-10T00:22:46.136Z,166.33
2023-03-10T00:25:13.059Z,162.73
2023-03-10T00:27:39.946Z,166.67
2023-03-10T00:30:08.157Z,167.73
2023-03-10T00:32:36.174Z,171.03
2023-03-10T00:35:06.041Z,164.00
2023-03-10T00:37:37.074Z,171.53
2023-03-10T00:40:07.881Z,165.07
2023-03-10T00:42:35.690Z,164.57
2023-03-10T00:45:02.733Z,166.33
2023-03-10T00:47:29.646Z,168.93
2023-03-10T00:49:56.540Z,175.43
2023-03-10T00:52:23.404Z,162.07
2023-03-10T00:54:51.426Z,168.17
2023-03-10T00:57:18.487Z,166.23
2023-03-10T00:59:50.553Z,167.33
2023-03-10T01:02:20.044Z,163.40
2023-03-10T01:04:48.468Z,159.30
2023-03-10T01:07:15.839Z,166.10
2023-03-10T01:09:43.402Z,179.83
2023-03-10T01:12:10.741Z,146.83
2023-03-10T01:14:39.497Z,149.53
2023-03-10T01:17:06.453Z,146.40
2023-03-10T01:19:34.037Z,150.07
2023-03-10T01:22:02.094Z,150.90
2023-03-10T01:24:29.494Z,152.57
2023-03-10T01:26:56.784Z,155.47
2023-03-10T01:29:24.043Z,153.60
2023-03-10T01:31:51.296Z,145.47
2023-03-10T01:34:18.578Z,140.40
2023-03-10T01:36:45.970Z,158.70
2023-03-10T01:39:13.967Z,155.50
2023-03-10T01:41:41.785Z,150.50
2023-03-10T01:44:19.958Z,152.23
2023-03-10T01:46:53.359Z,155.47
2023-03-10T01:49:41.428Z,163.87
2023-03-10T01:52:10.410Z,147.73
2023-03-10T01:54:52.806Z,149.83
2023-03-10T01:57:25.409Z,154.90
2023-03-10T01:59:53.255Z,158.03
2023-03-10T02:02:20.993Z,160.70
2023-03-10T02:04:50.995Z,159.10
2023-03-10T02:07:29.095Z,148.13
2023-03-10T02:09:56.822Z,153.60
2023-03-10T02:12:24.390Z,156.43
2023-03-10T02:14:52.805Z,150.70
2023-03-10T02:17:23.569Z,150.40
2023-03-10T02:20:43.086Z,153.47
2023-03-10T02:23:31.086Z,150.90
2023-03-10T02:26:12.615Z,153.43
2023-03-10T02:28:40.612Z,155.47
2023-03-10T02:31:09.019Z,150.97
2023-03-10T02:33:37.915Z,149.33
2023-03-10T02:36:21.331Z,155.93
2023-03-10T02:38:49.170Z,151.63
2023-03-10T02:41:35.837Z,153.97
2023-03-10T02:44:12.271Z,148.90
2023-03-10T02:46:39.902Z,148.83
2023-03-10T02:49:10.700Z,154.63
2023-03-10T02:51:45.478Z,158.93
2023-03-10T02:54:18.194Z,152.87
2023-03-10T02:56:45.612Z,145.70
2023-03-10T02:59:14.977Z,152.93
2023-03-10T03:01:46.963Z,160.03
2023-03-10T03:04:14.755Z,151.53
2023-03-10T03:06:42.833Z,154.40
2023-03-10T03:09:10.391Z,152.77
2023-03-10T03:11:37.685Z,158.90
2023-03-10T03:14:07.944Z,151.03
2023-03-10T03:16:35.685Z,151.87
2023-03-10T03:19:07.023Z,156.00
2023-03-10T03:21:34.356Z,151.87
2023-03-10T03:24:01.605Z,148.33
2023-03-10T03:26:28.927Z,149.90
2023-03-10T03:29:05.726Z,151.97
2023-03-10T03:31:36.018Z,150.07
2023-03-10T03:34:09.450Z,150.00
2023-03-10T03:36:37.994Z,156.53
2023-03-10T03:39:07.302Z,148.60
2023-03-10T03:41:36.182Z,153.53
2023-03-10T03:44:04.368Z,155.43
2023-03-10T03:46:34.159Z,156.47
2023-03-10T03:49:01.693Z,151.80
2023-03-10T03:51:30.689Z,151.57
2023-03-10T03:53:59.156Z,153.10
2023-03-10T03:56:26.520Z,149.80
2023-03-10T03:58:53.918Z,147.43
2023-03-10T04:01:21.377Z,151.13
2023-03-10T04:03:53.582Z,150.20
2023-03-10T04:06:21.709Z,153.50
2023-03-10T04:08:51.870Z,153.10
2023-03-10T04:11:20.388Z,151.07
2023-03-10T04:13:49.616Z,154.23
2023-03-10T04:16:17.488Z,156.60
2023-03-10T04:18:45.548Z,158.30
2023-03-10T04:21:15.142Z,158.97
2023-03-10T04:23:43.768Z,161.67
2023-03-10T04:26:14.177Z,151.80
2023-03-10T04:28:41.970Z,158.70
2023-03-10T04:31:16.057Z,162.70
2023-03-10T04:33:45.144Z,154.47
2023-03-10T04:36:14.035Z,149.23
2023-03-10T04:38:42.849Z,157.03
2023-03-10T04:41:10.390Z,154.87
2023-03-10T04:43:43.254Z,159.13
2023-03-10T04:46:12.169Z,160.47
2023-03-10T04:48:39.951Z,164.43
2023-03-10T04:51:10.487Z,162.00
2023-03-10T04:53:43.166Z,162.13
2023-03-10T04:56:11.748Z,165.00
2023-03-10T04:58:40.630Z,164.83
2023-03-10T05:01:11.659Z,162.57
2023-03-10T05:03:43.465Z,159.87
2023-03-10T05:06:22.023Z,163.60
2023-03-10T05:09:12.187Z,159.87
2023-03-10T05:11:39.780Z,158.67
2023-03-10T05:14:07.098Z,166.03
2023-03-10T05:16:34.412Z,163.03
2023-03-10T05:19:02.256Z,158.80
2023-03-10T05:21:31.425Z,157.00
2023-03-10T05:23:59.680Z,156.83
2023-03-10T05:26:27.282Z,165.80
2023-03-10T05:28:55.045Z,168.73
2023-03-10T05:31:30.853Z,165.00
2023-03-10T05:34:06.546Z,165.00
2023-03-10T05:36:33.576Z,160.63
2023-03-10T05:39:03.037Z,163.23
2023-03-10T05:41:30.484Z,161.03
2023-03-10T05:43:59.299Z,162.57
2023-03-10T05:46:27.086Z,157.93
2023-03-10T05:48:58.046Z,162.40
2023-03-10T05:51:26.115Z,163.40
2023-03-10T05:53:53.720Z,158.83
2023-03-10T05:56:26.003Z,162.47
2023-03-10T05:58:57.451Z,162.23
2023-03-10T06:01:30.251Z,167.00
2023-03-10T06:03:57.755Z,161.60
2023-03-10T06:06:25.295Z,160.97
2023-03-10T06:08:52.665Z,167.03
2023-03-10T06:11:19.968Z,165.43
2023-03-10T06:13:47.406Z,167.33
2023-03-10T06:16:14.995Z,171.27
2023-03-10T06:18:42.360Z,163.90
2023-03-10T06:21:13.790Z,171.53
2023-03-10T06:23:41.325Z,172.30
2023-03-10T06:26:13.077Z,174.03
2023-03-10T06:28:42.357Z,176.73
2023-03-10T06:31:16.176Z,174.93
2023-03-10T06:33:44.629Z,171.63
2023-03-10T06:36:13.167Z,178.80
2023-03-10T06:38:40.909Z,178.37
2023-03-10T06:41:08.664Z,178.57
2023-03-10T06:43:36.450Z,175.63
2023-03-10T06:46:06.700Z,169.90
2023-03-10T06:48:34.739Z,176.73
2023-03-10T06:51:03.264Z,174.63
2023-03-10T06:53:30.509Z,183.90
2023-03-10T06:56:13.765Z,182.13
2023-03-10T06:58:41.897Z,179.57
2023-03-10T07:01:20.536Z,188.13
2023-03-10T07:03:47.528Z,177.77
2023-03-10T07:06:14.821Z,175.83
2023-03-10T07:08:42.098Z,180.53
2023-03-10T07:11:09.930Z,177.57
2023-03-10T07:13:38.584Z,182.60
2023-03-10T07:16:06.466Z,185.43
2023-03-10T07:18:33.966Z,182.97
2023-03-10T07:21:01.522Z,190.17
2023-03-10T07:23:29.008Z,190.80
2023-03-10T07:25:57.338Z,181.90
2023-03-10T07:28:25.744Z,180.67
2023-03-10T07:30:53.700Z,188.47
2023-03-10T07:33:21.385Z,182.80
2023-03-10T07:35:48.464Z,179.33
2023-03-10T07:38:15.824Z,189.60
2023-03-10T07:40:43.100Z,188.47
2023-03-10T07:43:10.492Z,191.97
2023-03-10T07:45:38.250Z,185.37
2023-03-10T07:48:05.669Z,189.53
2023-03-10T07:50:32.942Z,182.77
2023-03-10T07:53:00.376Z,194.63
2023-03-10T07:55:27.808Z,183.23
2023-03-10T07:57:56.772Z,182.63
2023-03-10T08:00:24.096Z,189.17
2023-03-10T08:02:51.406Z,192.07
2023-03-10T08:05:18.904Z,191.03
2023-03-10T08:07:47.334Z,184.23
2023-03-10T08:10:14.858Z,178.03
2023-03-10T08:12:42.217Z,190.73
2023-03-10T08:15:11.090Z,182.27
2023-03-10T08:17:38.344Z,186.90
2023-03-10T08:20:06.800Z,184.63
2023-03-10T08:22:34.479Z,188.60
2023-03-10T08:25:02.142Z,181.00
2023-03-10T08:27:30.152Z,178.50
2023-03-10T08:29:57.528Z,201.50
2023-03-10T08:32:24.983Z,201.97
2023-03-10T08:34:52.346Z,187.37
2023-03-10T08:37:19.620Z,182.80
2023-03-10T08:39:47.325Z,192.57
2023-03-10T08:42:14.717Z,194.00
2023-03-10T08:44:42.399Z,192.20
2023-03-10T08:47:09.800Z,186.90
2023-03-10T08:49:37.369Z,188.43
2023-03-10T08:52:05.035Z,179.50
2023-03-10T08:54:32.774Z,183.30
2023-03-10T08:57:00.922Z,203.33
2023-03-10T08:59:28.333Z,188.53
2023-03-10T09:01:55.742Z,188.27
2023-03-10T09:04:22.874Z,184.37
2023-03-10T09:06:50.230Z,183.47
2023-03-10T09:09:17.534Z,188.10
2023-03-10T09:11:44.927Z,189.53
2023-03-10T09:14:14.531Z,192.90
2023-03-10T09:16:43.190Z,188.50
2023-03-10T09:19:10.552Z,189.73
2023-03-10T09:21:37.936Z,188.00
2023-03-10T09:24:05.520Z,201.10
2023-03-10T09:26:34.312Z,190.93
2023-03-10T09:29:02.618Z,179.20
2023-03-10T09:31:34.451Z,192.20
2023-03-10T09:34:02.222Z,191.50
2023-03-10T09:36:30.068Z,188.53
2023-03-10T09:38:58.316Z,195.97
2023-03-10T09:42:05.563Z,190.87
2023-03-10T09:45:33.216Z,187.53
2023-03-10T09:48:34.908Z,204.23
2023-03-10T09:51:16.280Z,195.20
2023-03-10T09:54:11.580Z,210.63
2023-03-10T09:56:39.253Z,199.93
2023-03-10T09:59:22.147Z,193.67
2023-03-10T10:01:51.599Z,186.13
2023-03-10T10:04:38.039Z,196.20
2023-03-10T10:07:15.682Z,190.53
2023-03-10T10:10:09.364Z,189.70
2023-03-10T10:12:36.355Z,197.47
2023-03-10T10:15:19.355Z,199.07
2023-03-10T10:18:18.454Z,193.40
2023-03-10T10:20:51.405Z,193.07
2023-03-10T10:23:33.953Z,198.57
2023-03-10T10:26:20.130Z,197.60
2023-03-10T10:29:07.083Z,195.27
2023-03-10T10:31:36.069Z,200.87
2023-03-10T10:34:22.030Z,200.27
2023-03-10T10:36:55.726Z,201.67
2023-03-10T10:39:39.422Z,197.00
2023-03-10T10:42:29.545Z,195.20
2023-03-10T10:44:59.374Z,198.83
2023-03-10T10:47:32.319Z,200.50
2023-03-10T10:50:18.008Z,201.10
2023-03-10T10:52:50.531Z,199.70
2023-03-10T10:55:34.832Z,198.43
2023-03-10T10:58:06.623Z,200.20
2023-03-10T11:00:38.199Z,207.17
2023-03-10T11:03:36.957Z,196.50
2023-03-10T11:06:29.095Z,200.00
2023-03-10T11:09:10.884Z,208.03
2023-03-10T11:12:08.533Z,201.20
2023-03-10T11:15:03.477Z,204.50
2023-03-10T11:17:53.852Z,194.50
2023-03-10T11:20:45.109Z,203.17
2023-03-10T11:23:30.417Z,197.80
2023-03-10T11:26:10.734Z,205.33
2023-03-10T11:29:16.082Z,206.20
2023-03-10T11:31:45.964Z,197.67
2023-03-10T11:34:30.533Z,201.60
2023-03-10T11:37:52.261Z,200.07
2023-03-10T11:40:50.918Z,201.37
2023-03-10T11:43:31.644Z,196.23
2023-03-10T11:46:04.921Z,195.63
2023-03-10T11:49:08.161Z,200.97
2023-03-10T11:51:43.083Z,200.37
2023-03-10T11:54:21.291Z,198.90
2023-03-10T11:56:50.254Z,201.27
2023-03-10T11:59:33.392Z,200.97
2023-03-10T12:02:20.388Z,196.57
2023-03-10T12:05:07.047Z,198.73
2023-03-10T12:07:40.207Z,189.10
2023-03-10T12:10:13.160Z,192.23
2023-03-10T12:12:44.575Z,193.97
2023-03-10T12:15:36.111Z,197.07
2023-03-10T12:18:07.942Z,198.03
2023-03-10T12:20:36.050Z,199.70
2023-03-10T12:23:27.083Z,196.83
2023-03-10T12:25:54.643Z,200.87
2023-03-10T12:28:29.167Z,201.60
2023-03-10T12:31:29.680Z,197.87
2023-03-10T12:34:18.056Z,284.70
2023-03-10T12:36:47.584Z,209.40
2023-03-10T12:39:43.668Z,192.13
2023-03-10T12:42:34.965Z,209.13
2023-03-10T12:45:21.319Z,209.67
2023-03-10T12:48:01.777Z,212.70
2023-03-10T12:50:35.849Z,203.17
2023-03-10T12:53:51.348Z,220.93
2023-03-10T12:56:43.712Z,206.93
2023-03-10T12:59:35.815Z,235.47
2023-03-10T13:02:05.029Z,217.17
2023-03-10T13:04:32.816Z,227.37
2023-03-10T13:07:03.515Z,217.03
2023-03-10T13:09:38.894Z,216.23
2023-03-10T13:12:33.574Z,206.33
2023-03-10T13:15:01.260Z,209.57
2023-03-10T13:17:32.075Z,219.07
2023-03-10T13:20:19.875Z,209.43
2023-03-10T13:22:58.850Z,218.90
2023-03-10T13:25:26.505Z,215.33
2023-03-10T13:27:55.327Z,207.77
2023-03-10T13:30:26.541Z,213.30
2023-03-10T13:33:02.777Z,210.40
2023-03-10T13:35:39.259Z,215.90
2023-03-10T13:38:18.965Z,213.47
2023-03-10T13:41:02.070Z,221.73
2023-03-10T13:43:43.661Z,209.60
2023-03-10T13:46:18.309Z,208.03
2023-03-10T13:48:47.033Z,211.93
2023-03-10T13:51:26.310Z,213.37
2023-03-10T13:53:55.857Z,215.60
2023-03-10T13:56:28.559Z,220.03
2023-03-10T13:58:58.242Z,211.00
2023-03-10T14:01:29.809Z,211.20
2023-03-10T14:03:59.183Z,208.13
2023-03-10T14:06:28.513Z,208.57
2023-03-10T14:08:56.070Z,214.70
2023-03-10T14:11:44.539Z,216.30
2023-03-10T14:14:13.004Z,212.63
2023-03-10T14:16:58.029Z,229.80
2023-03-10T14:19:42.953Z,212.50
2023-03-10T14:22:38.051Z,209.57
2023-03-10T14:25:18.634Z,211.57
2023-03-10T14:27:57.408Z,205.03
2023-03-10T14:30:30.827Z,203.50
2023-03-10T14:32:59.995Z,204.50
2023-03-10T14:35:29.653Z,201.37
2023-03-10T14:37:56.637Z,211.17
2023-03-10T14:40:25.412Z,212.27
2023-03-10T14:42:54.612Z,214.57
2023-03-10T14:45:34.737Z,215.97
2023-03-10T14:48:13.648Z,217.87
2023-03-10T14:50:40.672Z,211.63
2023-03-10T14:53:13.770Z,220.30
2023-03-10T14:55:42.809Z,212.73
2023-03-10T14:58:17.609Z,207.10
2023-03-10T15:00:44.634Z,211.27
2023-03-10T15:03:13.011Z,214.47
2023-03-10T15:05:48.355Z,207.03
2023-03-10T15:08:17.287Z,214.70
2023-03-10T15:10:48.746Z,212.97
2023-03-10T15:13:18.619Z,208.83
2023-03-10T15:15:47.145Z,213.53
2023-03-10T15:18:18.398Z,223.97
2023-03-10T15:20:45.732Z,216.30
2023-03-10T15:23:16.489Z,208.43
2023-03-10T15:25:45.925Z,230.87
2023-03-10T15:28:13.651Z,217.20
2023-03-10T15:30:40.925Z,214.97
2023-03-10T15:33:07.835Z,224.90
2023-03-10T15:35:35.107Z,229.13
2023-03-10T15:38:02.825Z,222.37
2023-03-10T15:40:32.621Z,229.20
2023-03-10T15:42:59.968Z,226.87
2023-03-10T15:45:29.414Z,240.63
2023-03-10T15:47:57.631Z,260.93
2023-03-10T15:50:24.832Z,235.67
2023-03-10T15:52:58.400Z,246.90
2023-03-10T15:55:27.152Z,228.77
2023-03-10T15:57:56.051Z,242.10
2023-03-10T16:00:26.446Z,233.33
2023-03-10T16:02:53.707Z,262.30
2023-03-10T16:05:21.055Z,231.47
2023-03-10T16:07:48.547Z,214.50
2023-03-10T16:10:19.576Z,217.77
2023-03-10T16:12:46.834Z,215.80
2023-03-10T16:15:17.562Z,219.90
2023-03-10T16:17:45.600Z,220.47
2023-03-10T16:20:13.971Z,209.70
2023-03-10T16:22:42.976Z,214.33
2023-03-10T16:25:18.855Z,217.47
2023-03-10T16:27:46.850Z,205.23
2023-03-10T16:30:16.063Z,209.57
2023-03-10T16:32:50.313Z,218.87
2023-03-10T16:35:18.244Z,212.83
2023-03-10T16:37:45.623Z,211.77
2023-03-10T16:40:13.124Z,204.27
2023-03-10T16:42:43.437Z,217.00
2023-03-10T16:45:10.901Z,212.97
2023-03-10T16:47:38.455Z,216.23
2023-03-10T16:50:05.918Z,220.97
2023-03-10T16:52:42.209Z,224.90
2023-03-10T16:55:17.006Z,217.30
2023-03-10T16:57:47.418Z,228.37
2023-03-10T17:00:15.682Z,235.07
2023-03-10T17:02:43.080Z,225.00
2023-03-10T17:05:11.465Z,221.27
2023-03-10T17:07:53.302Z,234.77
2023-03-10T17:10:22.793Z,227.60
2023-03-10T17:12:49.729Z,227.10
2023-03-10T17:15:17.107Z,228.07
2023-03-10T17:17:44.402Z,230.83
2023-03-10T17:20:12.475Z,227.80
2023-03-10T17:22:39.810Z,220.63
2023-03-10T17:25:07.662Z,225.80
2023-03-10T17:27:35.063Z,230.77
2023-03-10T17:30:02.428Z,237.13
2023-03-10T17:32:30.716Z,245.63
2023-03-10T17:34:57.781Z,240.70
2023-03-10T17:37:25.098Z,259.37
2023-03-10T17:39:52.144Z,249.23
2023-03-10T17:42:19.443Z,243.47
2023-03-10T17:44:46.901Z,250.10
2023-03-10T17:47:13.851Z,252.70
2023-03-10T17:49:41.126Z,386.17
2023-03-10T17:52:08.563Z,249.40
2023-03-10T17:54:35.572Z,252.37
2023-03-10T17:57:02.977Z,255.80
2023-03-10T17:59:31.905Z,267.47
2023-03-10T18:02:00.573Z,256.53
2023-03-10T18:04:29.627Z,258.03
2023-03-10T18:06:56.963Z,264.33
2023-03-10T18:09:24.330Z,263.20
2023-03-10T18:11:51.274Z,261.83
2023-03-10T18:14:18.533Z,264.27
2023-03-10T18:16:45.894Z,272.50
2023-03-10T18:19:13.364Z,272.40
2023-03-10T18:21:40.665Z,269.23
2023-03-10T18:24:10.118Z,263.70
2023-03-10T18:26:38.084Z,268.10
2023-03-10T18:29:05.438Z,262.67
2023-03-10T18:31:34.509Z,263.03
2023-03-10T18:34:02.282Z,269.23
2023-03-10T18:36:30.382Z,261.40
2023-03-10T18:38:58.017Z,277.43
2023-03-10T18:41:30.673Z,269.20
2023-03-10T18:43:59.867Z,264.03
2023-03-10T18:46:27.406Z,260.33
2023-03-10T18:48:56.020Z,263.77
2023-03-10T18:51:26.028Z,264.83
2023-03-10T18:53:53.424Z,262.27
2023-03-10T18:56:20.772Z,267.27
2023-03-10T18:58:48.102Z,285.33
2023-03-10T19:01:15.656Z,271.40
2023-03-10T19:03:43.075Z,288.73
2023-03-10T19:06:10.624Z,280.17
2023-03-10T19:08:38.964Z,252.33
2023-03-10T19:11:07.084Z,253.07
2023-03-10T19:13:35.093Z,247.10
2023-03-10T19:16:09.874Z,245.40
2023-03-10T19:18:36.973Z,240.17
2023-03-10T19:21:04.867Z,233.07
2023-03-10T19:23:33.989Z,234.33
2023-03-10T19:26:01.672Z,229.40
2023-03-10T19:28:28.815Z,236.43
2023-03-10T19:30:56.151Z,238.70
2023-03-10T19:33:23.589Z,225.90
2023-03-10T19:35:51.470Z,239.93
2023-03-10T19:38:18.452Z,225.93
2023-03-10T19:40:46.871Z,228.40
2023-03-10T19:43:14.166Z,241.50
2023-03-10T19:45:41.478Z,225.67
2023-03-10T19:48:08.825Z,226.97
2023-03-10T19:50:36.407Z,229.27
2023-03-10T19:53:03.669Z,227.77
2023-03-10T19:55:30.545Z,233.83
2023-03-10T19:57:57.558Z,251.10
2023-03-10T20:00:30.911Z,282.70
2023-03-10T20:02:58.542Z,273.63
2023-03-10T20:05:26.968Z,261.97
2023-03-10T20:07:54.353Z,271.00
2023-03-10T20:10:21.447Z,302.67
2023-03-10T20:12:51.122Z,314.60
2023-03-10T20:15:18.385Z,275.43
2023-03-10T20:17:45.698Z,251.73
2023-03-10T20:20:15.225Z,229.63
2023-03-10T20:22:45.603Z,243.23
2023-03-10T20:25:18.880Z,238.50
2023-03-10T20:27:47.439Z,248.73
2023-03-10T20:30:27.888Z,248.60
2023-03-10T20:32:57.174Z,248.57
2023-03-10T20:35:26.282Z,247.33
2023-03-10T20:37:53.305Z,233.43
2023-03-10T20:40:23.970Z,246.73
2023-03-10T20:42:52.498Z,242.63
2023-03-10T20:45:20.115Z,242.20
2023-03-10T20:47:48.009Z,238.63
2023-03-10T20:50:16.879Z,232.47
2023-03-10T20:52:44.592Z,242.83
2023-03-10T20:55:21.494Z,242.43
2023-03-10T20:57:49.776Z,233.87
2023-03-10T21:00:20.100Z,234.87
2023-03-10T21:02:49.325Z,237.57
2023-03-10T21:05:16.731Z,234.30
2023-03-10T21:07:44.044Z,248.27
2023-03-10T21:10:13.397Z,260.73
2023-03-10T21:12:43.025Z,263.80
2023-03-10T21:15:14.086Z,259.90
2023-03-10T21:17:41.120Z,256.70
2023-03-10T21:20:09.524Z,258.97
2023-03-10T21:22:38.222Z,251.10
2023-03-10T21:25:08.976Z,255.07
2023-03-10T21:27:36.349Z,262.33
2023-03-10T21:30:09.848Z,255.27
2023-03-10T21:32:37.902Z,277.47
2023-03-10T21:35:05.874Z,262.67
2023-03-10T21:37:33.267Z,268.47
2023-03-10T21:40:00.653Z,263.47
2023-03-10T21:42:27.981Z,253.73
2023-03-10T21:44:55.893Z,253.53
2023-03-10T21:47:22.896Z,257.47
2023-03-10T21:49:50.183Z,255.93
2023-03-10T21:52:18.135Z,258.07
2023-03-10T21:54:45.497Z,262.27
2023-03-10T21:57:12.800Z,255.67
2023-03-10T21:59:40.438Z,254.87
2023-03-10T22:02:08.259Z,253.57
2023-03-10T22:04:35.210Z,251.63
2023-03-10T22:07:02.774Z,241.70
2023-03-10T22:09:31.223Z,247.47
2023-03-10T22:11:58.220Z,243.17
2023-03-10T22:14:25.143Z,242.60
2023-03-10T22:16:52.445Z,245.60
2023-03-10T22:19:20.018Z,234.43
2023-03-10T22:21:47.295Z,238.67
2023-03-10T22:24:14.563Z,234.60
2023-03-10T22:26:42.029Z,225.73
2023-03-10T22:29:08.963Z,232.70
2023-03-10T22:31:36.281Z,234.30
2023-03-10T22:34:03.196Z,230.87
2023-03-10T22:36:30.172Z,235.13
2023-03-10T22:38:57.495Z,245.17
2023-03-10T22:41:25.735Z,237.57
2023-03-10T22:43:53.132Z,226.70
2023-03-10T22:46:20.324Z,220.90
2023-03-10T22:48:47.380Z,223.63
2023-03-10T22:51:18.398Z,229.87
2023-03-10T22:53:49.214Z,207.33
2023-03-10T22:56:16.309Z,211.07
2023-03-10T22:58:43.299Z,208.40
2023-03-10T23:01:10.568Z,208.67
2023-03-10T23:03:37.552Z,211.50
2023-03-10T23:06:06.235Z,220.53
2023-03-10T23:08:35.195Z,209.30
2023-03-10T23:11:02.125Z,210.03
2023-03-10T23:13:29.156Z,210.03
2023-03-10T23:15:56.669Z,212.73
2023-03-10T23:18:23.678Z,209.80
2023-03-10T23:20:52.923Z,223.13
2023-03-10T23:23:19.912Z,217.67
2023-03-10T23:25:50.842Z,216.43
2023-03-10T23:28:19.702Z,213.13
2023-03-10T23:30:48.979Z,212.87
2023-03-10T23:33:19.700Z,207.10
2023-03-10T23:35:50.402Z,224.23
2023-03-10T23:38:17.373Z,209.27
2023-03-10T23:40:44.705Z,212.10
2023-03-10T23:43:12.623Z,212.37
2023-03-10T23:45:40.157Z,203.83
2023-03-10T23:48:12.143Z,210.00
2023-03-10T23:50:42.202Z,206.77
2023-03-10T23:53:12.016Z,213.33
2023-03-10T23:55:44.663Z,211.13
2023-03-10T23:58:14.034Z,214.00
